sensor_id;sensor_type;location;lat;lon;timestamp;pressure;altitude;pressure_sealevel;temperature
61703;BMP280;47622;47.726;3.298;2024-02-26T00:00:34;96535.50;;;8.00
61703;BMP280;47622;47.726;3.298;2024-02-26T00:03:00;96538.78;;;7.97
61703;BMP280;47622;47.726;3.298;2024-02-26T00:05:26;96527.66;;;8.00
61703;BMP280;47622;47.726;3.298;2024-02-26T00:07:52;96542.63;;;8.04
61703;BMP280;47622;47.726;3.298;2024-02-26T00:10:17;96541.84;;;8.03
61703;BMP280;47622;47.726;3.298;2024-02-26T00:12:43;96541.38;;;7.97
61703;BMP280;47622;47.726;3.298;2024-02-26T00:15:09;96533.81;;;7.92
61703;BMP280;47622;47.726;3.298;2024-02-26T00:17:35;96540.16;;;7.91
61703;BMP280;47622;47.726;3.298;2024-02-26T00:20:02;96537.16;;;7.89
61703;BMP280;47622;47.726;3.298;2024-02-26T00:22:30;96533.44;;;7.90
61703;BMP280;47622;47.726;3.298;2024-02-26T00:24:56;96538.91;;;8.05
61703;BMP280;47622;47.726;3.298;2024-02-26T00:27:22;96542.47;;;7.96
61703;BMP280;47622;47.726;3.298;2024-02-26T00:29:47;96544.69;;;7.94
61703;BMP280;47622;47.726;3.298;2024-02-26T00:32:14;96543.19;;;7.93
61703;BMP280;47622;47.726;3.298;2024-02-26T00:34:39;96537.25;;;7.96
61703;BMP280;47622;47.726;3.298;2024-02-26T00:37:05;96534.94;;;7.91
61703;BMP280;47622;47.726;3.298;2024-02-26T00:39:31;96539.31;;;7.87
61703;BMP280;47622;47.726;3.298;2024-02-26T00:41:56;96543.03;;;7.86
61703;BMP280;47622;47.726;3.298;2024-02-26T00:44:22;96542.16;;;7.79
61703;BMP280;47622;47.726;3.298;2024-02-26T00:46:48;96548.25;;;7.86
61703;BMP280;47622;47.726;3.298;2024-02-26T00:49:13;96541.94;;;7.87
61703;BMP280;47622;47.726;3.298;2024-02-26T00:51:39;96543.72;;;7.83
61703;BMP280;47622;47.726;3.298;2024-02-26T00:54:04;96550.19;;;7.89
61703;BMP280;47622;47.726;3.298;2024-02-26T00:56:30;96543.19;;;7.93
61703;BMP280;47622;47.726;3.298;2024-02-26T00:58:55;96536.72;;;8.07
61703;BMP280;47622;47.726;3.298;2024-02-26T01:01:21;96535.94;;;8.06
61703;BMP280;47622;47.726;3.298;2024-02-26T01:03:46;96546.38;;;8.06
61703;BMP280;47622;47.726;3.298;2024-02-26T01:06:12;96538.97;;;8.08
61703;BMP280;47622;47.726;3.298;2024-02-26T01:08:38;96549.50;;;8.12
61703;BMP280;47622;47.726;3.298;2024-02-26T01:11:04;96548.84;;;8.18
61703;BMP280;47622;47.726;3.298;2024-02-26T01:13:30;96558.47;;;8.14
61703;BMP280;47622;47.726;3.298;2024-02-26T01:15:55;96550.25;;;8.12
61703;BMP280;47622;47.726;3.298;2024-02-26T01:18:21;96546.53;;;8.13
61703;BMP280;47622;47.726;3.298;2024-02-26T01:20:47;96551.69;;;8.10
61703;BMP280;47622;47.726;3.298;2024-02-26T01:23:13;96549.75;;;8.07
61703;BMP280;47622;47.726;3.298;2024-02-26T01:25:38;96553.88;;;8.08
61703;BMP280;47622;47.726;3.298;2024-02-26T01:28:05;96552.38;;;8.07
61703;BMP280;47622;47.726;3.298;2024-02-26T01:30:31;96555.38;;;8.09
61703;BMP280;47622;47.726;3.298;2024-02-26T01:32:57;96551.69;;;8.10
61703;BMP280;47622;47.726;3.298;2024-02-26T01:35:22;96548.94;;;8.03
61703;BMP280;47622;47.726;3.298;2024-02-26T01:37:48;96551.56;;;8.03
61703;BMP280;47622;47.726;3.298;2024-02-26T01:40:14;96544.00;;;7.97
61703;BMP280;47622;47.726;3.298;2024-02-26T01:42:44;96552.06;;;7.92
61703;BMP280;47622;47.726;3.298;2024-02-26T01:45:15;96548.13;;;7.79
61703;BMP280;47622;47.726;3.298;2024-02-26T01:47:46;96547.63;;;7.74
61703;BMP280;47622;47.726;3.298;2024-02-26T01:50:13;96552.28;;;7.64
61703;BMP280;47622;47.726;3.298;2024-02-26T01:52:38;96561.47;;;7.58
61703;BMP280;47622;47.726;3.298;2024-02-26T01:55:04;96557.72;;;7.56
61703;BMP280;47622;47.726;3.298;2024-02-26T01:57:30;96558.84;;;7.58
61703;BMP280;47622;47.726;3.298;2024-02-26T01:59:55;96558.84;;;7.58
61703;BMP280;47622;47.726;3.298;2024-02-26T02:02:21;96553.72;;;7.62
61703;BMP280;47622;47.726;3.298;2024-02-26T02:04:48;96564.16;;;7.62
61703;BMP280;47622;47.726;3.298;2024-02-26T02:07:14;96551.53;;;7.64
61703;BMP280;47622;47.726;3.298;2024-02-26T02:09:40;96552.03;;;7.69
61703;BMP280;47622;47.726;3.298;2024-02-26T02:12:06;96548.66;;;7.69
61703;BMP280;47622;47.726;3.298;2024-02-26T02:14:31;96550.16;;;7.70
61703;BMP280;47622;47.726;3.298;2024-02-26T02:16:57;96547.06;;;7.64
61703;BMP280;47622;47.726;3.298;2024-02-26T02:19:23;96560.31;;;7.56
61703;BMP280;47622;47.726;3.298;2024-02-26T02:21:48;96566.19;;;7.53
61703;BMP280;47622;47.726;3.298;2024-02-26T02:24:14;96565.31;;;7.45
61703;BMP280;47622;47.726;3.298;2024-02-26T02:26:39;96568.22;;;7.43
61703;BMP280;47622;47.726;3.298;2024-02-26T02:29:06;96566.72;;;7.42
61703;BMP280;47622;47.726;3.298;2024-02-26T02:31:34;96569.34;;;7.42
61703;BMP280;47622;47.726;3.298;2024-02-26T02:33:59;96572.16;;;7.53
61703;BMP280;47622;47.726;3.298;2024-02-26T02:36:25;96566.53;;;7.51
61703;BMP280;47622;47.726;3.298;2024-02-26T02:38:51;96569.38;;;7.62
61703;BMP280;47622;47.726;3.298;2024-02-26T02:41:17;96576.09;;;7.63
61703;BMP280;47622;47.726;3.298;2024-02-26T02:43:43;96569.38;;;7.62
61703;BMP280;47622;47.726;3.298;2024-02-26T02:46:09;96561.06;;;7.76
61703;BMP280;47622;47.726;3.298;2024-02-26T02:48:37;96561.97;;;7.83
61703;BMP280;47622;47.726;3.298;2024-02-26T02:51:03;96558.56;;;7.79
61703;BMP280;47622;47.726;3.298;2024-02-26T02:53:29;96555.84;;;7.76
61703;BMP280;47622;47.726;3.298;2024-02-26T02:55:54;96569.66;;;7.76
61703;BMP280;47622;47.726;3.298;2024-02-26T02:58:20;96567.47;;;7.78
61703;BMP280;47622;47.726;3.298;2024-02-26T03:00:45;96550.31;;;7.77
61703;BMP280;47622;47.726;3.298;2024-02-26T03:03:11;96554.84;;;7.80
61703;BMP280;47622;47.726;3.298;2024-02-26T03:05:37;96564.13;;;7.78
61703;BMP280;47622;47.726;3.298;2024-02-26T03:08:03;96564.03;;;7.74
61703;BMP280;47622;47.726;3.298;2024-02-26T03:10:28;96548.72;;;7.72
61703;BMP280;47622;47.726;3.298;2024-02-26T03:12:54;96553.19;;;7.72
61703;BMP280;47622;47.726;3.298;2024-02-26T03:15:20;96552.50;;;7.75
61703;BMP280;47622;47.726;3.298;2024-02-26T03:17:45;96555.38;;;7.70
61703;BMP280;47622;47.726;3.298;2024-02-26T03:20:11;96556.88;;;7.71
61703;BMP280;47622;47.726;3.298;2024-02-26T03:22:39;96556.84;;;7.67
61703;BMP280;47622;47.726;3.298;2024-02-26T03:25:06;96552.38;;;7.68
61703;BMP280;47622;47.726;3.298;2024-02-26T03:27:32;96551.53;;;7.64
61703;BMP280;47622;47.726;3.298;2024-02-26T03:29:58;96543.44;;;7.69
61703;BMP280;47622;47.726;3.298;2024-02-26T03:32:23;96551.19;;;7.65
61703;BMP280;47622;47.726;3.298;2024-02-26T03:34:49;96548.16;;;7.63
61703;BMP280;47622;47.726;3.298;2024-02-26T03:37:14;96549.34;;;7.66
61703;BMP280;47622;47.726;3.298;2024-02-26T03:39:40;96542.59;;;7.65
61703;BMP280;47622;47.726;3.298;2024-02-26T03:42:06;96551.00;;;7.74
61703;BMP280;47622;47.726;3.298;2024-02-26T03:44:31;96547.97;;;7.72
61703;BMP280;47622;47.726;3.298;2024-02-26T03:46:57;96548.03;;;7.76
61703;BMP280;47622;47.726;3.298;2024-02-26T03:49:23;96554.16;;;7.83
61703;BMP280;47622;47.726;3.298;2024-02-26T03:51:48;96556.41;;;7.85
61703;BMP280;47622;47.726;3.298;2024-02-26T03:54:14;96555.53;;;7.77
61703;BMP280;47622;47.726;3.298;2024-02-26T03:56:39;96559.22;;;7.76
61703;BMP280;47622;47.726;3.298;2024-02-26T03:59:05;96547.28;;;7.75
61703;BMP280;47622;47.726;3.298;2024-02-26T04:01:31;96556.97;;;7.75
61703;BMP280;47622;47.726;3.298;2024-02-26T04:03:57;96557.38;;;7.77
61703;BMP280;47622;47.726;3.298;2024-02-26T04:06:22;96555.53;;;7.77
61703;BMP280;47622;47.726;3.298;2024-02-26T04:08:48;96557.88;;;7.82
61703;BMP280;47622;47.726;3.298;2024-02-26T04:11:14;96556.50;;;7.88
61703;BMP280;47622;47.726;3.298;2024-02-26T04:13:43;96562.03;;;7.87
61703;BMP280;47622;47.726;3.298;2024-02-26T04:16:11;96566.75;;;7.81
61703;BMP280;47622;47.726;3.298;2024-02-26T04:18:37;96568.97;;;7.79
61703;BMP280;47622;47.726;3.298;2024-02-26T04:21:04;96562.28;;;7.82
61703;BMP280;47622;47.726;3.298;2024-02-26T04:23:32;96572.72;;;7.82
61703;BMP280;47622;47.726;3.298;2024-02-26T04:25:58;96580.94;;;7.80
61703;BMP280;47622;47.726;3.298;2024-02-26T04:28:24;96581.34;;;7.82
61703;BMP280;47622;47.726;3.298;2024-02-26T04:30:55;96571.25;;;7.81
61703;BMP280;47622;47.726;3.298;2024-02-26T04:33:21;96571.97;;;7.81
61703;BMP280;47622;47.726;3.298;2024-02-26T04:35:46;96569.88;;;7.87
61703;BMP280;47622;47.726;3.298;2024-02-26T04:38:12;96564.59;;;7.83
61703;BMP280;47622;47.726;3.298;2024-02-26T04:40:37;96563.22;;;7.89
61703;BMP280;47622;47.726;3.298;2024-02-26T04:43:03;96562.38;;;7.85
61703;BMP280;47622;47.726;3.298;2024-02-26T04:45:29;96565.41;;;7.87
61703;BMP280;47622;47.726;3.298;2024-02-26T04:47:54;96558.00;;;7.89
61703;BMP280;47622;47.726;3.298;2024-02-26T04:50:20;96562.38;;;7.85
61703;BMP280;47622;47.726;3.298;2024-02-26T04:52:46;96555.31;;;7.86
61703;BMP280;47622;47.726;3.298;2024-02-26T04:55:11;96555.25;;;7.82
61703;BMP280;47622;47.726;3.298;2024-02-26T04:57:37;96558.69;;;7.86
61703;BMP280;47622;47.726;3.298;2024-02-26T05:00:04;96565.69;;;7.82
61703;BMP280;47622;47.726;3.298;2024-02-26T05:02:30;96554.00;;;7.76
61703;BMP280;47622;47.726;3.298;2024-02-26T05:04:57;96557.72;;;7.75
61703;BMP280;47622;47.726;3.298;2024-02-26T05:07:23;96553.25;;;7.76
61703;BMP280;47622;47.726;3.298;2024-02-26T05:09:49;96569.03;;;7.83
61703;BMP280;47622;47.726;3.298;2024-02-26T05:12:17;96568.91;;;7.76
61703;BMP280;47622;47.726;3.298;2024-02-26T05:14:43;96570.97;;;7.66
61703;BMP280;47622;47.726;3.298;2024-02-26T05:17:09;96577.34;;;7.69
61703;BMP280;47622;47.726;3.298;2024-02-26T05:19:34;96575.97;;;7.75
61703;BMP280;47622;47.726;3.298;2024-02-26T05:22:00;96580.78;;;7.73
61703;BMP280;47622;47.726;3.298;2024-02-26T05:24:25;96582.19;;;7.70
61703;BMP280;47622;47.726;3.298;2024-02-26T05:26:51;96582.28;;;7.74
61703;BMP280;47622;47.726;3.298;2024-02-26T05:29:16;96573.13;;;7.64
61703;BMP280;47622;47.726;3.298;2024-02-26T05:31:42;96584.31;;;7.65
61703;BMP280;47622;47.726;3.298;2024-02-26T05:34:08;96584.31;;;7.65
61703;BMP280;47622;47.726;3.298;2024-02-26T05:36:34;96587.19;;;7.60
61703;BMP280;47622;47.726;3.298;2024-02-26T05:39:01;96581.59;;;7.58
61703;BMP280;47622;47.726;3.298;2024-02-26T05:41:27;96583.47;;;7.61
61703;BMP280;47622;47.726;3.298;2024-02-26T05:43:53;96584.56;;;7.60
61703;BMP280;47622;47.726;3.298;2024-02-26T05:46:20;96588.69;;;7.61
61703;BMP280;47622;47.726;3.298;2024-02-26T05:48:51;96589.13;;;7.63
61703;BMP280;47622;47.726;3.298;2024-02-26T05:51:16;96590.88;;;7.59
61703;BMP280;47622;47.726;3.298;2024-02-26T05:53:42;96601.72;;;7.61
61703;BMP280;47622;47.726;3.298;2024-02-26T05:56:08;96595.34;;;7.58
61703;BMP280;47622;47.726;3.298;2024-02-26T05:58:34;96594.63;;;7.58
61703;BMP280;47622;47.726;3.298;2024-02-26T06:01:00;96601.72;;;7.61
61703;BMP280;47622;47.726;3.298;2024-02-26T06:03:26;96603.91;;;7.59
61703;BMP280;47622;47.726;3.298;2024-02-26T06:05:51;96598.44;;;7.64
61703;BMP280;47622;47.726;3.298;2024-02-26T06:08:17;96601.06;;;7.64
61703;BMP280;47622;47.726;3.298;2024-02-26T06:10:43;96604.31;;;7.61
61703;BMP280;47622;47.726;3.298;2024-02-26T06:13:08;96603.56;;;7.60
61703;BMP280;47622;47.726;3.298;2024-02-26T06:15:34;96596.09;;;7.59
61703;BMP280;47622;47.726;3.298;2024-02-26T06:17:59;96601.25;;;7.55
61703;BMP280;47622;47.726;3.298;2024-02-26T06:20:25;96608.03;;;7.60
61703;BMP280;47622;47.726;3.298;2024-02-26T06:22:51;96609.97;;;7.63
61703;BMP280;47622;47.726;3.298;2024-02-26T06:25:17;96623.28;;;7.58
61703;BMP280;47622;47.726;3.298;2024-02-26T06:27:42;96619.84;;;7.54
61703;BMP280;47622;47.726;3.298;2024-02-26T06:30:08;96627.31;;;7.55
61703;BMP280;47622;47.726;3.298;2024-02-26T06:32:37;96622.88;;;7.56
61703;BMP280;47622;47.726;3.298;2024-02-26T06:35:03;96633.22;;;7.52
61703;BMP280;47622;47.726;3.298;2024-02-26T06:37:32;96629.09;;;7.51
61703;BMP280;47622;47.726;3.298;2024-02-26T06:40:02;96631.34;;;7.53
61703;BMP280;47622;47.726;3.298;2024-02-26T06:42:30;96625.47;;;7.56
61703;BMP280;47622;47.726;3.298;2024-02-26T06:44:56;96622.16;;;7.59
61703;BMP280;47622;47.726;3.298;2024-02-26T06:47:21;96629.63;;;7.60
61703;BMP280;47622;47.726;3.298;2024-02-26T06:49:47;96630.41;;;7.61
61703;BMP280;47622;47.726;3.298;2024-02-26T06:52:12;96640.56;;;7.66
61703;BMP280;47622;47.726;3.298;2024-02-26T06:54:38;96639.41;;;7.63
61703;BMP280;47622;47.726;3.298;2024-02-26T06:57:04;96643.19;;;7.66
61703;BMP280;47622;47.726;3.298;2024-02-26T06:59:29;96646.22;;;7.68
61703;BMP280;47622;47.726;3.298;2024-02-26T07:01:55;96648.56;;;7.73
61703;BMP280;47622;47.726;3.298;2024-02-26T07:04:20;96650.06;;;7.74
61703;BMP280;47622;47.726;3.298;2024-02-26T07:06:46;96655.41;;;7.81
61703;BMP280;47622;47.726;3.298;2024-02-26T07:09:12;96649.63;;;7.88
61703;BMP280;47622;47.726;3.298;2024-02-26T07:11:38;96651.91;;;7.89
61703;BMP280;47622;47.726;3.298;2024-02-26T07:14:11;96649.84;;;7.98
61703;BMP280;47622;47.726;3.298;2024-02-26T07:16:37;96655.97;;;8.06
61703;BMP280;47622;47.726;3.298;2024-02-26T07:19:03;96653.69;;;8.05
61703;BMP280;47622;47.726;3.298;2024-02-26T07:21:29;96661.47;;;8.20
61703;BMP280;47622;47.726;3.298;2024-02-26T07:23:54;96669.53;;;8.31
61703;BMP280;47622;47.726;3.298;2024-02-26T07:26:20;96668.44;;;8.51
61703;BMP280;47622;47.726;3.298;2024-02-26T07:28:46;96667.44;;;8.59
61703;BMP280;47622;47.726;3.298;2024-02-26T07:31:12;96673.88;;;8.66
61703;BMP280;47622;47.726;3.298;2024-02-26T07:33:38;96677.72;;;8.72
61703;BMP280;47622;47.726;3.298;2024-02-26T07:36:03;96681.53;;;8.74
61703;BMP280;47622;47.726;3.298;2024-02-26T07:38:29;96679.25;;;8.73
61703;BMP280;47622;47.726;3.298;2024-02-26T07:40:54;96687.09;;;8.73
61703;BMP280;47622;47.726;3.298;2024-02-26T07:43:22;96685.44;;;8.65
61703;BMP280;47622;47.726;3.298;2024-02-26T07:45:47;96690.03;;;8.71
61703;BMP280;47622;47.726;3.298;2024-02-26T07:48:13;96692.91;;;8.66
61703;BMP280;47622;47.726;3.298;2024-02-26T07:50:39;96695.50;;;8.63
61703;BMP280;47622;47.726;3.298;2024-02-26T07:53:05;96700.16;;;8.53
61703;BMP280;47622;47.726;3.298;2024-02-26T07:55:31;96704.44;;;8.46
61703;BMP280;47622;47.726;3.298;2024-02-26T07:57:57;96701.84;;;8.46
61703;BMP280;47622;47.726;3.298;2024-02-26T08:00:22;96704.81;;;8.44
61703;BMP280;47622;47.726;3.298;2024-02-26T08:02:48;96704.13;;;8.47
61703;BMP280;47622;47.726;3.298;2024-02-26T08:05:13;96706.88;;;8.54
61703;BMP280;47622;47.726;3.298;2024-02-26T08:07:39;96709.50;;;8.54
61703;BMP280;47622;47.726;3.298;2024-02-26T08:10:05;96702.38;;;8.51
61703;BMP280;47622;47.726;3.298;2024-02-26T08:12:30;96711.28;;;8.50
61703;BMP280;47622;47.726;3.298;2024-02-26T08:14:56;96704.34;;;8.58
61703;BMP280;47622;47.726;3.298;2024-02-26T08:17:23;96709.31;;;8.67
61703;BMP280;47622;47.726;3.298;2024-02-26T08:19:49;96713.22;;;8.73
61703;BMP280;47622;47.726;3.298;2024-02-26T08:22:14;96708.78;;;8.77
61703;BMP280;47622;47.726;3.298;2024-02-26T08:24:42;96713.41;;;8.83
61703;BMP280;47622;47.726;3.298;2024-02-26T08:27:08;96719.50;;;8.91
61703;BMP280;47622;47.726;3.298;2024-02-26T08:29:33;96718.41;;;8.92
61703;BMP280;47622;47.726;3.298;2024-02-26T08:31:59;96723.28;;;8.94
61703;BMP280;47622;47.726;3.298;2024-02-26T08:34:25;96728.28;;;9.02
61703;BMP280;47622;47.726;3.298;2024-02-26T08:36:50;96732.53;;;9.10
61703;BMP280;47622;47.726;3.298;2024-02-26T08:39:17;96731.84;;;9.13
61703;BMP280;47622;47.726;3.298;2024-02-26T08:41:46;96739.38;;;9.18
61703;BMP280;47622;47.726;3.298;2024-02-26T08:44:12;96745.97;;;9.32
61703;BMP280;47622;47.726;3.298;2024-02-26T08:46:37;96744.88;;;9.33
61703;BMP280;47622;47.726;3.298;2024-02-26T08:49:03;96752.28;;;9.31
61703;BMP280;47622;47.726;3.298;2024-02-26T08:51:29;96756.94;;;9.41
61703;BMP280;47622;47.726;3.298;2024-02-26T08:53:54;96756.81;;;9.34
61703;BMP280;47622;47.726;3.298;2024-02-26T08:56:20;96750.72;;;9.26
61703;BMP280;47622;47.726;3.298;2024-02-26T08:58:47;96762.03;;;9.34
61703;BMP280;47622;47.726;3.298;2024-02-26T09:01:14;96762.16;;;9.41
61703;BMP280;47622;47.726;3.298;2024-02-26T09:03:40;96769.97;;;9.60
61703;BMP280;47622;47.726;3.298;2024-02-26T09:06:06;96766.38;;;9.68
61703;BMP280;47622;47.726;3.298;2024-02-26T09:08:32;96768.50;;;9.89
61703;BMP280;47622;47.726;3.298;2024-02-26T09:10:58;96775.13;;;10.06
61703;BMP280;47622;47.726;3.298;2024-02-26T09:13:24;96780.81;;;10.38
61703;BMP280;47622;47.726;3.298;2024-02-26T09:15:50;96781.72;;;10.53
61703;BMP280;47622;47.726;3.298;2024-02-26T09:18:15;96790.22;;;10.43
61703;BMP280;47622;47.726;3.298;2024-02-26T09:20:41;96789.00;;;10.36
61703;BMP280;47622;47.726;3.298;2024-02-26T09:23:07;96793.44;;;10.32
61703;BMP280;47622;47.726;3.298;2024-02-26T09:25:32;96799.00;;;10.27
61703;BMP280;47622;47.726;3.298;2024-02-26T09:28:01;96798.09;;;10.16
61703;BMP280;47622;47.726;3.298;2024-02-26T09:30:26;96802.09;;;10.10
61703;BMP280;47622;47.726;3.298;2024-02-26T09:32:52;96805.63;;;10.21
61703;BMP280;47622;47.726;3.298;2024-02-26T09:35:18;96804.22;;;10.27
61703;BMP280;47622;47.726;3.298;2024-02-26T09:37:44;96812.25;;;10.38
61703;BMP280;47622;47.726;3.298;2024-02-26T09:40:10;96819.19;;;10.57
61703;BMP280;47622;47.726;3.298;2024-02-26T09:42:46;96817.56;;;10.75
61703;BMP280;47622;47.726;3.298;2024-02-26T09:45:19;96821.91;;;10.98
61703;BMP280;47622;47.726;3.298;2024-02-26T09:47:48;96826.56;;;11.11
61703;BMP280;47622;47.726;3.298;2024-02-26T09:50:14;96825.91;;;11.21
61703;BMP280;47622;47.726;3.298;2024-02-26T09:52:43;96828.38;;;11.44
61703;BMP280;47622;47.726;3.298;2024-02-26T09:55:09;96832.22;;;11.57
61703;BMP280;47622;47.726;3.298;2024-02-26T09:57:36;96845.78;;;11.63
61703;BMP280;47622;47.726;3.298;2024-02-26T10:00:03;96838.16;;;11.47
61703;BMP280;47622;47.726;3.298;2024-02-26T10:02:33;96844.78;;;11.38
61703;BMP280;47622;47.726;3.298;2024-02-26T10:05:02;96849.81;;;11.16
61703;BMP280;47622;47.726;3.298;2024-02-26T10:07:31;96839.97;;;11.03
61703;BMP280;47622;47.726;3.298;2024-02-26T10:09:57;96853.38;;;10.98
61703;BMP280;47622;47.726;3.298;2024-02-26T10:12:23;96863.00;;;10.86
61703;BMP280;47622;47.726;3.298;2024-02-26T10:14:51;96863.72;;;10.57
61703;BMP280;47622;47.726;3.298;2024-02-26T10:17:18;96873.59;;;10.41
61703;BMP280;47622;47.726;3.298;2024-02-26T10:19:44;96871.28;;;10.35
61703;BMP280;47622;47.726;3.298;2024-02-26T10:22:10;96876.31;;;10.21
61703;BMP280;47622;47.726;3.298;2024-02-26T10:24:36;96878.22;;;10.24
61703;BMP280;47622;47.726;3.298;2024-02-26T10:27:02;96872.47;;;10.38
61703;BMP280;47622;47.726;3.298;2024-02-26T10:29:28;96884.66;;;10.83
61703;BMP280;47622;47.726;3.298;2024-02-26T10:31:54;96890.78;;;10.94
61703;BMP280;47622;47.726;3.298;2024-02-26T10:34:20;96894.28;;;11.06
61703;BMP280;47622;47.726;3.298;2024-02-26T10:36:46;96891.91;;;11.27
61703;BMP280;47622;47.726;3.298;2024-02-26T10:39:14;96887.53;;;11.38
61703;BMP280;47622;47.726;3.298;2024-02-26T10:41:44;96895.47;;;11.45
61703;BMP280;47622;47.726;3.298;2024-02-26T10:44:11;96902.63;;;11.48
61703;BMP280;47622;47.726;3.298;2024-02-26T10:46:41;96901.06;;;11.40
61703;BMP280;47622;47.726;3.298;2024-02-26T10:49:13;96903.81;;;11.21
61703;BMP280;47622;47.726;3.298;2024-02-26T10:51:42;96919.19;;;11.19
61703;BMP280;47622;47.726;3.298;2024-02-26T10:54:14;96917.13;;;11.05
61703;BMP280;47622;47.726;3.298;2024-02-26T10:56:41;96912.47;;;10.91
61703;BMP280;47622;47.726;3.298;2024-02-26T10:59:09;96920.78;;;10.97
61703;BMP280;47622;47.726;3.298;2024-02-26T11:01:35;96921.09;;;10.92
61703;BMP280;47622;47.726;3.298;2024-02-26T11:04:04;96935.53;;;11.09
61703;BMP280;47622;47.726;3.298;2024-02-26T11:06:31;96926.06;;;11.01
61703;BMP280;47622;47.726;3.298;2024-02-26T11:09:00;96930.41;;;10.89
61703;BMP280;47622;47.726;3.298;2024-02-26T11:11:26;96942.13;;;10.69
61703;BMP280;47622;47.726;3.298;2024-02-26T11:13:53;96951.38;;;10.36
61703;BMP280;47622;47.726;3.298;2024-02-26T11:16:23;96954.31;;;9.89
61703;BMP280;47622;47.726;3.298;2024-02-26T11:18:49;96951.72;;;9.70
61703;BMP280;47622;47.726;3.298;2024-02-26T11:21:18;96956.78;;;9.59
61703;BMP280;47622;47.726;3.298;2024-02-26T11:23:47;96960.06;;;9.56
61703;BMP280;47622;47.726;3.298;2024-02-26T11:26:15;96962.13;;;9.66
61703;BMP280;47622;47.726;3.298;2024-02-26T11:28:43;96969.78;;;9.75
61703;BMP280;47622;47.726;3.298;2024-02-26T11:31:10;96968.19;;;9.90
61703;BMP280;47622;47.726;3.298;2024-02-26T11:33:36;96973.13;;;9.95
61703;BMP280;47622;47.726;3.298;2024-02-26T11:36:07;96973.50;;;10.16
61703;BMP280;47622;47.726;3.298;2024-02-26T11:38:33;96978.59;;;10.32
61703;BMP280;47622;47.726;3.298;2024-02-26T11:40:59;96972.63;;;10.58
61703;BMP280;47622;47.726;3.298;2024-02-26T11:43:52;96975.72;;;10.90
61703;BMP280;47622;47.726;3.298;2024-02-26T11:46:30;96972.00;;;10.91
61703;BMP280;47622;47.726;3.298;2024-02-26T11:49:00;96981.66;;;11.13
61703;BMP280;47622;47.726;3.298;2024-02-26T11:51:27;96969.94;;;11.34
61703;BMP280;47622;47.726;3.298;2024-02-26T11:53:53;96978.06;;;11.96
61703;BMP280;47622;47.726;3.298;2024-02-26T11:56:20;96985.22;;;12.43
61703;BMP280;47622;47.726;3.298;2024-02-26T11:58:46;96977.91;;;12.73
61703;BMP280;47622;47.726;3.298;2024-02-26T12:01:40;96972.53;;;13.21
61703;BMP280;47622;47.726;3.298;2024-02-26T12:04:17;96973.28;;;13.25
61703;BMP280;47622;47.726;3.298;2024-02-26T12:06:46;96978.22;;;13.30
61703;BMP280;47622;47.726;3.298;2024-02-26T12:09:12;96969.84;;;13.10
61703;BMP280;47622;47.726;3.298;2024-02-26T12:11:40;96976.59;;;13.08
61703;BMP280;47622;47.726;3.298;2024-02-26T12:14:08;96976.63;;;13.15
61703;BMP280;47622;47.726;3.298;2024-02-26T12:16:40;96973.81;;;13.70
61703;BMP280;47622;47.726;3.298;2024-02-26T12:19:09;96967.75;;;13.59
61703;BMP280;47622;47.726;3.298;2024-02-26T12:21:37;96970.41;;;13.84
61703;BMP280;47622;47.726;3.298;2024-02-26T12:24:09;96968.50;;;13.77
61703;BMP280;47622;47.726;3.298;2024-02-26T12:26:35;96982.84;;;13.83
61703;BMP280;47622;47.726;3.298;2024-02-26T12:29:01;96979.47;;;13.83
61703;BMP280;47622;47.726;3.298;2024-02-26T12:31:26;96976.81;;;13.72
61703;BMP280;47622;47.726;3.298;2024-02-26T12:33:54;96974.59;;;14.10
61703;BMP280;47622;47.726;3.298;2024-02-26T12:36:21;96984.34;;;13.84
61703;BMP280;47622;47.726;3.298;2024-02-26T12:38:50;96985.09;;;13.74
61703;BMP280;47622;47.726;3.298;2024-02-26T12:41:16;96983.53;;;13.59
61703;BMP280;47622;47.726;3.298;2024-02-26T12:43:42;96994.00;;;13.45
61703;BMP280;47622;47.726;3.298;2024-02-26T12:46:07;96986.47;;;13.32
61703;BMP280;47622;47.726;3.298;2024-02-26T12:48:33;96991.66;;;13.11
61703;BMP280;47622;47.726;3.298;2024-02-26T12:50:59;96996.84;;;12.97
61703;BMP280;47622;47.726;3.298;2024-02-26T12:53:26;96995.94;;;12.75
61703;BMP280;47622;47.726;3.298;2024-02-26T12:55:54;96998.84;;;12.59
61703;BMP280;47622;47.726;3.298;2024-02-26T12:58:20;96990.41;;;12.29
61703;BMP280;47622;47.726;3.298;2024-02-26T13:00:51;97003.72;;;12.09
61703;BMP280;47622;47.726;3.298;2024-02-26T13:03:17;96998.75;;;12.41
61703;BMP280;47622;47.726;3.298;2024-02-26T13:05:42;97007.88;;;12.65
61703;BMP280;47622;47.726;3.298;2024-02-26T13:08:08;97007.34;;;12.97
61703;BMP280;47622;47.726;3.298;2024-02-26T13:10:34;97012.72;;;13.11
61703;BMP280;47622;47.726;3.298;2024-02-26T13:13:02;97011.28;;;13.24
61703;BMP280;47622;47.726;3.298;2024-02-26T13:15:28;97008.63;;;13.28
61703;BMP280;47622;47.726;3.298;2024-02-26T13:17:53;97005.25;;;13.34
61703;BMP280;47622;47.726;3.298;2024-02-26T13:20:28;97007.50;;;13.29
61703;BMP280;47622;47.726;3.298;2024-02-26T13:23:04;97009.69;;;13.09
61703;BMP280;47622;47.726;3.298;2024-02-26T13:25:33;97005.97;;;13.17
61703;BMP280;47622;47.726;3.298;2024-02-26T13:28:07;97013.50;;;13.22
61703;BMP280;47622;47.726;3.298;2024-02-26T13:30:34;97014.03;;;13.56
61703;BMP280;47622;47.726;3.298;2024-02-26T13:33:12;97016.00;;;13.95
61703;BMP280;47622;47.726;3.298;2024-02-26T13:35:38;97022.78;;;14.14
61703;BMP280;47622;47.726;3.298;2024-02-26T13:38:07;97028.78;;;14.11
61703;BMP280;47622;47.726;3.298;2024-02-26T13:40:33;97021.25;;;14.34
61703;BMP280;47622;47.726;3.298;2024-02-26T13:43:00;97034.44;;;14.13
61703;BMP280;47622;47.726;3.298;2024-02-26T13:45:25;97023.47;;;13.89
61703;BMP280;47622;47.726;3.298;2024-02-26T13:47:51;97039.28;;;13.82
61703;BMP280;47622;47.726;3.298;2024-02-26T13:50:17;97031.66;;;13.56
61703;BMP280;47622;47.726;3.298;2024-02-26T13:52:47;97039.16;;;13.47
61703;BMP280;47622;47.726;3.298;2024-02-26T13:55:19;97039.94;;;13.51
61703;BMP280;47622;47.726;3.298;2024-02-26T13:57:45;97031.53;;;13.24
61703;BMP280;47622;47.726;3.298;2024-02-26T14:00:11;97033.78;;;13.22
61703;BMP280;47622;47.726;3.298;2024-02-26T14:02:37;97040.91;;;13.14
61703;BMP280;47622;47.726;3.298;2024-02-26T14:05:03;97045.06;;;13.22
61703;BMP280;47622;47.726;3.298;2024-02-26T14:07:29;97051.94;;;13.41
61703;BMP280;47622;47.726;3.298;2024-02-26T14:09:58;97039.16;;;13.47
61703;BMP280;47622;47.726;3.298;2024-02-26T14:12:24;97042.94;;;13.46